createdAt,value
2019-03-03T00:02:08.053Z,94.00
2019-03-03T00:04:40.524Z,93.90
2019-03-03T00:07:13.251Z,93.70
2019-03-03T00:09:45.609Z,93.70
2019-03-03T00:12:18.099Z,93.80
2019-03-03T00:14:51.836Z,93.60
2019-03-03T00:17:25.198Z,93.30
2019-03-03T00:19:57.758Z,93.30
2019-03-03T00:22:30.023Z,93.10
2019-03-03T00:25:02.314Z,93.20
2019-03-03T00:27:35.196Z,92.90
2019-03-03T00:30:09.956Z,92.80
2019-03-03T00:32:43.529Z,92.70
2019-03-03T00:35:16.478Z,92.60
2019-03-03T00:37:50.023Z,92.70
2019-03-03T00:40:23.684Z,92.90
2019-03-03T00:42:58.372Z,92.90
2019-03-03T00:45:32.173Z,92.70
2019-03-03T00:48:06.140Z,92.60
2019-03-03T00:50:40.258Z,92.30
2019-03-03T00:53:14.264Z,92.20
2019-03-03T00:55:48.201Z,92.30
2019-03-03T00:58:21.852Z,92.10
2019-03-03T01:00:55.537Z,91.30
2019-03-03T01:03:29.184Z,90.90
2019-03-03T01:06:04.430Z,90.70
2019-03-03T01:08:38.342Z,90.40
2019-03-03T01:11:12.751Z,90.00
2019-03-03T01:13:46.586Z,89.50
2019-03-03T01:16:20.576Z,89.70
2019-03-03T01:18:54.585Z,89.30
2019-03-03T01:21:28.728Z,89.20
2019-03-03T01:24:02.459Z,88.80
2019-03-03T01:26:34.924Z,88.90
2019-03-03T01:29:07.341Z,88.20
2019-03-03T01:31:39.861Z,88.20
2019-03-03T01:34:12.069Z,87.90
2019-03-03T01:36:46.610Z,87.60
2019-03-03T01:39:19.244Z,87.10
2019-03-03T01:41:51.599Z,86.70
2019-03-03T01:44:23.889Z,86.20
2019-03-03T01:46:57.509Z,86.20
2019-03-03T01:49:30.169Z,85.20
2019-03-03T01:52:02.702Z,85.70
2019-03-03T01:54:35.044Z,84.60
2019-03-03T01:57:07.846Z,83.60
2019-03-03T01:59:40.482Z,83.40
2019-03-03T02:02:13.300Z,83.50
2019-03-03T02:04:46.734Z,82.70
2019-03-03T02:07:20.417Z,82.40
2019-03-03T02:09:53.278Z,82.30
2019-03-03T02:12:26.122Z,82.20
2019-03-03T02:14:58.708Z,81.50
2019-03-03T02:17:31.179Z,80.40
2019-03-03T02:20:03.697Z,79.50
2019-03-03T02:22:36.104Z,79.10
2019-03-03T02:25:10.705Z,78.60
2019-03-03T02:27:43.624Z,78.00
2019-03-03T02:30:18.510Z,77.60
2019-03-03T02:32:51.265Z,77.60
2019-03-03T02:35:23.719Z,78.20
2019-03-03T02:37:56.157Z,77.60
2019-03-03T02:40:29.934Z,75.70
2019-03-03T02:43:02.579Z,76.60
2019-03-03T02:45:35.254Z,76.00
2019-03-03T02:48:07.967Z,75.60
2019-03-03T02:50:40.267Z,74.80
2019-03-03T02:53:13.858Z,74.60
2019-03-03T02:55:46.169Z,73.30
2019-03-03T02:58:18.609Z,73.10
2019-03-03T03:00:52.320Z,72.10
2019-03-03T03:03:26.694Z,71.80
2019-03-03T03:06:00.317Z,71.50
2019-03-03T03:08:34.559Z,71.30
2019-03-03T03:11:08.484Z,69.80
2019-03-03T03:13:43.104Z,70.60
2019-03-03T03:16:16.904Z,70.00
2019-03-03T03:18:51.433Z,70.20
2019-03-03T03:21:25.092Z,68.50
2019-03-03T03:23:59.972Z,67.80
2019-03-03T03:26:33.553Z,67.50
2019-03-03T03:29:07.542Z,68.30
2019-03-03T03:31:41.134Z,66.00
2019-03-03T03:34:15.071Z,66.00
2019-03-03T03:36:49.395Z,64.10
2019-03-03T03:39:23.078Z,63.40
2019-03-03T03:41:56.807Z,63.70
2019-03-03T03:44:31.035Z,64.20
2019-03-03T03:47:04.718Z,63.80
2019-03-03T03:49:38.459Z,64.20
2019-03-03T03:52:12.101Z,64.00
2019-03-03T03:54:46.447Z,61.40
2019-03-03T03:57:20.352Z,61.60
2019-03-03T03:59:54.555Z,59.30
2019-03-03T04:02:28.125Z,60.00
2019-03-03T04:05:02.494Z,59.90
2019-03-03T04:07:36.618Z,58.30
2019-03-03T04:10:11.927Z,59.20
2019-03-03T04:12:45.496Z,59.70
2019-03-03T04:15:19.357Z,60.30
2019-03-03T04:17:53.232Z,59.60
2019-03-03T04:20:27.687Z,58.70
2019-03-03T04:23:01.611Z,57.80
2019-03-03T04:25:35.864Z,58.50
2019-03-03T04:28:09.617Z,58.20
2019-03-03T04:30:43.500Z,58.00
2019-03-03T04:33:17.237Z,57.00
2019-03-03T04:35:51.351Z,56.30
2019-03-03T04:38:25.176Z,56.80
2019-03-03T04:40:59.068Z,55.60
2019-03-03T04:43:33.274Z,56.50
2019-03-03T04:46:06.946Z,54.80
2019-03-03T04:48:41.704Z,54.50
2019-03-03T04:51:15.459Z,55.30
2019-03-03T04:53:49.627Z,53.40
2019-03-03T04:56:23.568Z,54.40
2019-03-03T04:58:57.592Z,51.70
2019-03-03T05:01:32.200Z,51.80
2019-03-03T05:04:06.261Z,53.50
2019-03-03T05:06:40.717Z,52.30
2019-03-03T05:09:14.619Z,52.20
2019-03-03T05:11:51.701Z,53.10
2019-03-03T05:14:25.399Z,52.40
2019-03-03T05:16:59.513Z,53.50
2019-03-03T05:19:31.997Z,52.80
2019-03-03T05:22:04.617Z,50.90
2019-03-03T05:24:36.923Z,51.80
2019-03-03T05:27:09.464Z,49.70
2019-03-03T05:29:41.936Z,51.40
2019-03-03T05:32:14.659Z,50.60
2019-03-03T05:34:46.973Z,52.70
2019-03-03T05:37:20.379Z,50.90
2019-03-03T05:39:52.644Z,52.20
2019-03-03T05:42:25.416Z,50.50
2019-03-03T05:44:57.806Z,49.30
2019-03-03T05:47:30.501Z,50.00
2019-03-03T05:50:02.823Z,49.30
2019-03-03T05:52:35.852Z,50.80
2019-03-03T05:55:08.999Z,50.30
2019-03-03T05:57:42.399Z,48.40
2019-03-03T06:00:15.795Z,48.90
2019-03-03T06:02:48.766Z,48.10
2019-03-03T06:05:21.100Z,48.50
2019-03-03T06:10:24.897Z,49.70
2019-03-03T06:12:57.349Z,50.00
2019-03-03T06:15:29.713Z,47.30
2019-03-03T06:18:02.422Z,48.00
2019-03-03T06:20:35.021Z,48.60
2019-03-03T06:23:07.439Z,46.80
2019-03-03T06:25:39.779Z,45.70
2019-03-03T06:28:12.426Z,46.80
2019-03-03T06:30:44.776Z,45.20
2019-03-03T06:33:17.161Z,45.20
2019-03-03T06:35:49.710Z,45.90
2019-03-03T06:38:22.306Z,43.80
2019-03-03T06:40:54.861Z,44.00
2019-03-03T06:43:27.283Z,45.40
2019-03-03T06:46:00.223Z,44.40
2019-03-03T06:48:32.966Z,44.00
2019-03-03T06:51:05.393Z,44.40
2019-03-03T06:53:38.264Z,43.30
2019-03-03T06:56:10.859Z,44.00
2019-03-03T06:58:43.453Z,43.50
2019-03-03T07:01:16.852Z,43.80
2019-03-03T07:03:49.230Z,43.30
2019-03-03T07:06:21.562Z,42.50
2019-03-03T07:08:53.994Z,42.80
2019-03-03T07:11:26.269Z,43.30
2019-03-03T07:13:58.787Z,46.10
2019-03-03T07:16:31.250Z,47.60
2019-03-03T07:19:03.740Z,48.00
2019-03-03T07:21:36.023Z,46.80
2019-03-03T07:24:08.898Z,47.60
2019-03-03T07:26:41.339Z,42.90
2019-03-03T07:29:14.107Z,43.60
2019-03-03T07:31:46.360Z,42.10
2019-03-03T07:34:18.833Z,44.20
2019-03-03T07:36:51.513Z,44.30
2019-03-03T07:39:24.439Z,43.00
2019-03-03T07:41:57.499Z,43.30
2019-03-03T07:44:30.109Z,41.80
2019-03-03T07:47:02.548Z,41.90
2019-03-03T07:49:35.176Z,42.10
2019-03-03T07:52:07.636Z,43.30
2019-03-03T07:54:39.932Z,43.60
2019-03-03T07:57:12.419Z,44.30
2019-03-03T07:59:44.744Z,44.20
2019-03-03T08:02:17.556Z,43.50
2019-03-03T08:04:50.171Z,43.80
2019-03-03T08:07:23.047Z,43.90
2019-03-03T08:09:55.511Z,43.60
2019-03-03T08:12:28.324Z,45.00
2019-03-03T08:15:00.796Z,44.80
2019-03-03T08:17:33.872Z,44.30
2019-03-03T08:20:08.517Z,43.80
2019-03-03T08:22:40.949Z,43.30
2019-03-03T08:25:14.361Z,41.90
2019-03-03T08:27:46.606Z,40.80
2019-03-03T08:30:20.046Z,40.50
2019-03-03T08:32:52.880Z,41.70
2019-03-03T08:35:27.078Z,40.50
2019-03-03T08:38:00.190Z,39.70
2019-03-03T08:40:32.502Z,40.40
2019-03-03T08:43:06.660Z,41.70
2019-03-03T08:45:40.847Z,39.40
2019-03-03T08:48:14.928Z,40.50
2019-03-03T08:50:48.816Z,39.40
2019-03-03T08:53:23.014Z,41.10
2019-03-03T08:55:56.705Z,40.80
2019-03-03T08:58:30.941Z,39.10
2019-03-03T09:01:04.564Z,38.50
2019-03-03T09:03:39.077Z,39.20
2019-03-03T09:06:12.691Z,38.40
2019-03-03T09:08:46.490Z,39.70
2019-03-03T09:11:20.204Z,38.70
2019-03-03T09:13:54.313Z,39.50
2019-03-03T09:16:28.723Z,39.50
2019-03-03T09:19:02.625Z,39.40
2019-03-03T09:21:37.015Z,39.60
2019-03-03T09:24:12.508Z,40.20
2019-03-03T09:26:46.294Z,39.20
2019-03-03T09:29:19.813Z,38.10
2019-03-03T09:31:53.712Z,37.70
2019-03-03T09:34:27.540Z,37.90
2019-03-03T09:37:01.646Z,38.30
2019-03-03T09:39:35.387Z,39.70
2019-03-03T09:42:09.775Z,40.70
2019-03-03T09:44:43.474Z,39.90
2019-03-03T09:47:17.635Z,39.50
2019-03-03T09:49:51.790Z,39.80
2019-03-03T09:52:25.585Z,40.60
2019-03-03T09:54:59.205Z,40.50
2019-03-03T09:57:33.204Z,40.30
2019-03-03T10:00:08.086Z,40.70
2019-03-03T10:02:42.051Z,40.80
2019-03-03T10:05:16.263Z,40.40
2019-03-03T10:07:50.779Z,39.70
2019-03-03T10:10:24.693Z,39.00
2019-03-03T10:12:59.316Z,40.20
2019-03-03T10:15:34.014Z,41.20
2019-03-03T10:18:07.697Z,41.80
2019-03-03T10:20:41.500Z,42.00
2019-03-03T10:23:16.117Z,42.90
2019-03-03T10:25:49.789Z,44.10
2019-03-03T10:28:23.982Z,45.00
2019-03-03T10:30:57.453Z,44.70
2019-03-03T10:33:32.037Z,46.20
2019-03-03T10:36:05.700Z,45.70
2019-03-03T10:38:39.847Z,46.10
2019-03-03T10:41:13.350Z,46.00
2019-03-03T10:43:47.207Z,46.50
2019-03-03T10:46:21.565Z,46.50
2019-03-03T10:48:55.507Z,47.00
2019-03-03T10:51:29.699Z,47.50
2019-03-03T10:54:03.532Z,48.80
2019-03-03T10:56:37.818Z,48.00
2019-03-03T10:59:12.500Z,48.20
2019-03-03T11:01:46.870Z,49.60
2019-03-03T11:04:20.601Z,49.30
2019-03-03T11:06:54.582Z,49.20
2019-03-03T11:09:28.278Z,49.80
2019-03-03T11:12:02.354Z,50.70
2019-03-03T11:14:37.118Z,50.40
2019-03-03T11:17:11.043Z,50.40
2019-03-03T11:19:44.693Z,51.20
2019-03-03T11:22:18.745Z,53.90
2019-03-03T11:24:52.573Z,55.40
2019-03-03T11:27:26.356Z,54.50
2019-03-03T11:30:00.651Z,54.90
2019-03-03T11:32:48.774Z,55.40
2019-03-03T11:35:22.571Z,55.80
2019-03-03T11:37:56.471Z,57.00
2019-03-03T11:40:30.110Z,57.40
2019-03-03T11:43:04.090Z,57.00
2019-03-03T11:45:38.059Z,57.70
2019-03-03T11:48:11.962Z,58.40
2019-03-03T11:50:45.559Z,58.90
2019-03-03T11:53:19.202Z,58.70
2019-03-03T11:55:52.800Z,58.70
2019-03-03T11:58:27.196Z,59.10
2019-03-03T12:01:00.791Z,59.90
2019-03-03T12:03:35.377Z,59.70
2019-03-03T12:06:09.239Z,62.10
2019-03-03T12:08:43.490Z,64.20
2019-03-03T12:11:19.304Z,64.60
2019-03-03T12:13:53.920Z,63.50
2019-03-03T12:16:28.038Z,64.70
2019-03-03T12:19:01.882Z,64.70
2019-03-03T12:21:35.748Z,64.80
2019-03-03T12:24:09.383Z,66.00
2019-03-03T12:26:43.041Z,64.30
2019-03-03T12:29:16.869Z,64.90
2019-03-03T12:31:50.996Z,66.20
2019-03-03T12:34:25.919Z,67.10
2019-03-03T12:37:00.443Z,68.00
2019-03-03T12:39:34.174Z,68.60
2019-03-03T12:42:08.036Z,66.90
2019-03-03T12:44:42.006Z,68.00
2019-03-03T12:47:15.531Z,68.10
2019-03-03T12:49:51.225Z,67.10
2019-03-03T12:52:24.797Z,68.10
2019-03-03T12:54:58.914Z,68.20
2019-03-03T12:57:32.675Z,68.80
2019-03-03T13:00:07.562Z,69.30
2019-03-03T13:02:41.033Z,68.50
2019-03-03T13:05:15.517Z,68.00
2019-03-03T13:16:38.164Z,68.40
2019-03-03T13:19:11.736Z,70.70
2019-03-03T13:21:45.792Z,71.40
2019-03-03T13:24:19.651Z,71.00
2019-03-03T13:26:53.344Z,73.00
2019-03-03T13:29:27.320Z,72.50
2019-03-03T13:32:01.533Z,74.80
2019-03-03T13:34:36.085Z,72.60
2019-03-03T13:37:09.846Z,73.50
2019-03-03T13:39:43.680Z,75.30
2019-03-03T13:45:04.645Z,75.30
2019-03-03T13:47:38.494Z,75.80
2019-03-03T13:50:13.174Z,75.20
2019-03-03T13:52:45.859Z,76.20
2019-03-03T13:55:18.481Z,73.70
2019-03-03T13:57:51.346Z,74.10
2019-03-03T14:00:25.309Z,73.80
2019-03-03T14:02:58.290Z,74.40
2019-03-03T14:05:30.866Z,74.70
2019-03-03T14:08:03.203Z,74.50
2019-03-03T14:10:35.498Z,73.50
2019-03-03T14:13:08.459Z,73.60
2019-03-03T14:15:41.010Z,74.00
2019-03-03T14:18:14.226Z,73.90
2019-03-03T14:20:46.460Z,74.90
2019-03-03T14:23:19.130Z,75.20
2019-03-03T14:25:51.615Z,75.10
2019-03-03T14:28:24.194Z,73.90
2019-03-03T14:30:56.615Z,74.60
2019-03-03T14:33:29.059Z,76.00
2019-03-03T14:36:03.757Z,76.20
2019-03-03T14:38:36.056Z,76.60
2019-03-03T14:41:08.618Z,77.00
2019-03-03T14:43:41.513Z,74.80
2019-03-03T14:46:14.628Z,75.90
2019-03-03T14:48:47.227Z,76.20
2019-03-03T14:51:19.459Z,76.80
2019-03-03T14:53:51.587Z,78.20
2019-03-03T14:56:23.891Z,78.20
2019-03-03T14:58:56.146Z,78.10
2019-03-03T15:01:28.560Z,77.60
2019-03-03T15:04:00.953Z,76.50
2019-03-03T15:06:33.208Z,75.70
2019-03-03T15:09:07.900Z,76.40
2019-03-03T15:11:41.362Z,75.80
2019-03-03T15:14:13.713Z,76.10
2019-03-03T15:16:46.155Z,76.30
2019-03-03T15:19:19.779Z,76.80
2019-03-03T15:21:52.352Z,77.20
2019-03-03T15:24:26.850Z,76.70
2019-03-03T15:26:58.900Z,76.90
2019-03-03T15:29:31.058Z,77.40
2019-03-03T15:32:03.463Z,79.00
2019-03-03T15:34:35.946Z,77.60
2019-03-03T15:37:09.508Z,76.30
2019-03-03T15:39:42.265Z,78.00
2019-03-03T15:42:14.502Z,77.50
2019-03-03T15:44:46.880Z,77.60
2019-03-03T15:47:19.563Z,78.00
2019-03-03T15:49:52.144Z,78.10
2019-03-03T15:52:24.482Z,78.30
2019-03-03T15:54:56.686Z,75.60
2019-03-03T15:57:29.168Z,74.60
2019-03-03T16:00:01.700Z,75.30
2019-03-03T16:02:34.348Z,74.10
2019-03-03T16:05:08.486Z,73.80
2019-03-03T16:07:42.156Z,73.70
2019-03-03T16:10:16.903Z,73.50
2019-03-03T16:12:49.560Z,73.80
2019-03-03T16:15:21.935Z,73.80
2019-03-03T16:17:54.568Z,74.40
2019-03-03T16:20:27.145Z,74.20
2019-03-03T16:22:59.507Z,74.20
2019-03-03T16:25:31.879Z,74.10
2019-03-03T16:28:04.669Z,74.60
2019-03-03T16:30:37.073Z,74.90
2019-03-03T16:33:09.377Z,75.00
2019-03-03T16:35:41.885Z,75.20
2019-03-03T16:38:14.401Z,75.30
2019-03-03T16:40:46.560Z,75.70
2019-03-03T16:43:19.203Z,76.00
2019-03-03T16:45:51.911Z,76.20
2019-03-03T16:48:24.150Z,76.40
2019-03-03T16:50:56.938Z,76.80
2019-03-03T16:53:29.597Z,77.30
2019-03-03T16:56:01.998Z,77.60
2019-03-03T16:58:34.606Z,78.00
2019-03-03T17:01:07.541Z,78.30
2019-03-03T17:03:39.997Z,78.80
2019-03-03T17:06:12.568Z,79.00
2019-03-03T17:08:45.190Z,79.10
2019-03-03T17:11:17.885Z,79.30
2019-03-03T17:13:50.349Z,79.80
2019-03-03T17:16:22.794Z,80.00
2019-03-03T17:18:55.291Z,80.00
2019-03-03T17:21:28.476Z,80.10
2019-03-03T17:24:00.846Z,80.50
2019-03-03T17:26:33.334Z,80.60
2019-03-03T17:29:05.712Z,81.00
2019-03-03T17:31:38.132Z,81.40
2019-03-03T17:34:13.240Z,81.40
2019-03-03T17:36:44.865Z,81.90
2019-03-03T17:39:17.336Z,82.30
2019-03-03T17:41:49.750Z,82.50
2019-03-03T17:44:22.833Z,82.50
2019-03-03T17:46:55.578Z,82.90
2019-03-03T17:49:28.364Z,82.90
2019-03-03T17:52:01.114Z,83.20
2019-03-03T17:54:33.314Z,83.80
2019-03-03T17:57:05.996Z,83.70
2019-03-03T17:59:38.471Z,83.70
2019-03-03T18:02:11.393Z,83.70
2019-03-03T18:04:43.729Z,84.20
2019-03-03T18:07:16.719Z,84.10
2019-03-03T18:09:50.048Z,84.20
2019-03-03T18:12:22.821Z,84.80
2019-03-03T18:14:55.782Z,85.20
2019-03-03T18:17:28.441Z,85.60
2019-03-03T18:20:00.824Z,86.00
2019-03-03T18:22:33.679Z,88.40
2019-03-03T18:25:07.096Z,90.00
2019-03-03T18:27:39.905Z,90.20
2019-03-03T18:30:14.705Z,90.50
2019-03-03T18:32:47.010Z,90.70
2019-03-03T18:35:20.731Z,90.70
2019-03-03T18:37:53.089Z,91.00
2019-03-03T18:40:27.250Z,91.30
2019-03-03T18:42:59.643Z,91.40
2019-03-03T18:45:32.449Z,91.60
2019-03-03T18:48:04.859Z,91.60
2019-03-03T18:50:37.562Z,91.80
2019-03-03T18:53:10.096Z,91.90
2019-03-03T18:55:42.763Z,91.90
2019-03-03T18:58:15.840Z,91.90
2019-03-03T19:00:48.483Z,91.90
2019-03-03T19:03:21.706Z,92.10
2019-03-03T19:05:55.992Z,92.20
2019-03-03T19:08:29.692Z,92.40
2019-03-03T19:11:02.960Z,92.60
2019-03-03T19:13:35.693Z,92.70
2019-03-03T19:16:09.646Z,92.70
2019-03-03T19:18:41.994Z,92.70
2019-03-03T19:21:14.670Z,92.70
2019-03-03T19:23:47.100Z,92.70
2019-03-03T19:26:20.055Z,92.80
2019-03-03T19:28:52.378Z,92.90
2019-03-03T19:31:24.791Z,92.80
2019-03-03T19:33:59.308Z,93.00
2019-03-03T19:36:32.246Z,93.20
2019-03-03T19:39:06.102Z,93.20
2019-03-03T19:41:40.180Z,93.30
2019-03-03T19:44:12.442Z,93.00
2019-03-03T19:46:44.838Z,93.00
2019-03-03T19:49:17.461Z,92.90
2019-03-03T19:51:50.133Z,93.20
2019-03-03T19:54:22.886Z,93.10
2019-03-03T19:56:55.670Z,93.20
2019-03-03T19:59:28.066Z,93.20
2019-03-03T20:02:00.753Z,93.30
2019-03-03T20:04:33.202Z,93.30
2019-03-03T20:07:06.347Z,93.50
2019-03-03T20:09:38.659Z,93.70
2019-03-03T20:12:12.458Z,93.70
2019-03-03T20:14:45.064Z,93.80
2019-03-03T20:17:17.793Z,94.10
2019-03-03T20:19:50.374Z,94.10
2019-03-03T20:22:23.019Z,94.10
2019-03-03T20:24:55.586Z,94.20
2019-03-03T20:27:28.149Z,94.20
2019-03-03T20:30:00.538Z,94.10
2019-03-03T20:32:33.706Z,94.20
2019-03-03T20:35:08.062Z,94.20
2019-03-03T20:37:40.485Z,94.40
2019-03-03T20:40:15.418Z,94.40
2019-03-03T20:42:47.835Z,94.50
2019-03-03T20:45:22.704Z,94.50
2019-03-03T20:47:55.115Z,94.50
2019-03-03T20:50:27.802Z,94.80
2019-03-03T20:53:00.416Z,94.90
2019-03-03T20:55:34.437Z,94.90
2019-03-03T20:58:06.830Z,95.00
2019-03-03T21:00:39.583Z,95.30
2019-03-03T21:03:12.198Z,95.50
2019-03-03T21:05:44.746Z,95.30
2019-03-03T21:08:17.190Z,95.30
2019-03-03T21:10:49.556Z,95.10
2019-03-03T21:13:21.894Z,95.00
2019-03-03T21:15:54.668Z,95.10
2019-03-03T21:18:27.058Z,95.00
2019-03-03T21:20:59.342Z,94.80
2019-03-03T21:23:31.526Z,94.80
2019-03-03T21:26:04.054Z,94.90
2019-03-03T21:28:37.096Z,94.90
2019-03-03T21:31:09.397Z,95.00
2019-03-03T21:33:41.853Z,95.00
2019-03-03T21:36:14.219Z,95.10
2019-03-03T21:38:46.977Z,95.30
2019-03-03T21:41:19.905Z,95.40
2019-03-03T21:43:52.302Z,95.70
2019-03-03T21:46:24.860Z,95.60
2019-03-03T21:48:57.509Z,95.70
2019-03-03T21:51:29.798Z,95.70
2019-03-03T21:54:02.467Z,95.80
2019-03-03T21:56:34.751Z,96.10
2019-03-03T21:59:07.514Z,95.90
2019-03-03T22:01:40.506Z,95.90
2019-03-03T22:04:13.265Z,96.10
2019-03-03T22:06:45.586Z,96.20
2019-03-03T22:09:18.330Z,96.20
2019-03-03T22:11:51.470Z,96.30
2019-03-03T22:14:23.854Z,96.30
2019-03-03T22:16:56.221Z,96.10
2019-03-03T22:19:28.825Z,95.90
2019-03-03T22:22:01.457Z,95.80
2019-03-03T22:24:33.870Z,95.60
2019-03-03T22:27:06.544Z,95.60
2019-03-03T22:29:39.115Z,95.70
2019-03-03T22:32:11.555Z,95.70
2019-03-03T22:34:43.922Z,95.70
2019-03-03T22:37:16.659Z,95.70
2019-03-03T22:39:49.316Z,95.80
2019-03-03T22:42:21.748Z,95.60
2019-03-03T22:44:54.513Z,95.80
2019-03-03T22:47:26.905Z,95.70
2019-03-03T22:49:59.842Z,95.50
2019-03-03T22:52:32.523Z,95.50
2019-03-03T22:55:06.589Z,95.30
2019-03-03T22:57:38.825Z,95.20
2019-03-03T23:00:13.636Z,95.20
2019-03-03T23:02:47.323Z,95.20
2019-03-03T23:05:22.523Z,95.20
2019-03-03T23:07:57.139Z,95.40
2019-03-03T23:10:31.742Z,95.00
2019-03-03T23:13:06.358Z,95.00
2019-03-03T23:15:41.476Z,95.00
2019-03-03T23:18:16.046Z,95.00
2019-03-03T23:20:51.462Z,94.80
2019-03-03T23:23:27.073Z,94.80
2019-03-03T23:25:59.508Z,94.80
2019-03-03T23:28:32.249Z,94.80
2019-03-03T23:31:04.639Z,94.80
2019-03-03T23:33:36.950Z,94.80
2019-03-03T23:36:09.464Z,94.80
2019-03-03T23:38:42.142Z,94.80
2019-03-03T23:41:14.434Z,94.80
2019-03-03T23:43:47.059Z,94.70
2019-03-03T23:46:19.466Z,94.70
2019-03-03T23:48:52.083Z,94.80
2019-03-03T23:51:24.692Z,94.70
2019-03-03T23:53:57.165Z,94.60
2019-03-03T23:56:29.778Z,94.60
2019-03-03T23:59:03.059Z,94.40
